Time;durP1;ratioP1;P1;durP2;ratioP2;P2;SDS_P1;SDS_P2;PMS_P1;PMS_P2;Temp;Humidity;BMP_temperature;BMP_pressure;BME280_temperature;BME280_humidity;BME280_pressure;Samples;Min_cycle;Max_cycle;Signal;HPM_P1;HPM_P2
2024/01/30 00:00:04;;;;;;;160.67;63.70;;;-3.30;99.90;;;;;;8388082;28;20200;-61
2024/01/30 00:04:05;;;;;;;128.70;56.00;;;-3.40;99.90;;;;;;8388068;28;20275;-62
2024/01/30 00:08:06;;;;;;;135.40;54.23;;;-3.40;99.90;;;;;;8390867;28;20375;-62
2024/01/30 00:12:07;;;;;;;122.77;52.77;;;-3.50;99.90;;;;;;8400559;28;20208;-62
2024/01/30 00:16:09;;;;;;;110.53;43.80;;;-3.60;99.90;;;;;;8394347;28;20191;-63
2024/01/30 00:20:10;;;;;;;105.07;42.53;;;-3.70;99.90;;;;;;8393908;28;20189;-62
2024/01/30 00:24:11;;;;;;;121.77;49.33;;;-3.70;99.90;;;;;;8396032;28;20228;-62
2024/01/30 00:28:12;;;;;;;150.90;62.80;;;-3.70;99.90;;;;;;8395684;28;20184;-62
2024/01/30 00:32:12;;;;;;;125.00;53.73;;;-3.60;99.90;;;;;;8393888;28;20184;-62
2024/01/30 00:36:13;;;;;;;149.17;61.70;;;-3.60;99.90;;;;;;8392461;28;20205;-61
2024/01/30 00:40:15;;;;;;;128.43;55.63;;;-3.70;99.90;;;;;;8399221;28;20187;-60
2024/01/30 00:44:16;;;;;;;137.63;56.93;;;-3.60;99.90;;;;;;8392661;28;20208;-61
2024/01/30 00:48:16;;;;;;;118.33;50.37;;;-3.60;99.90;;;;;;8390630;28;20522;-60
2024/01/30 00:52:17;;;;;;;133.27;57.27;;;-3.60;99.90;;;;;;8392875;28;20295;-61
2024/01/30 00:56:19;;;;;;;125.63;55.83;;;-3.70;99.90;;;;;;8400900;28;20683;-61
2024/01/30 01:00:20;;;;;;;113.07;50.63;;;-3.70;99.90;;;;;;8392391;28;20216;-61
2024/01/30 01:04:21;;;;;;;73.73;35.53;;;-3.80;99.90;;;;;;8395316;28;20208;-60
2024/01/30 01:08:22;;;;;;;52.37;25.57;;;-3.80;99.90;;;;;;8395157;28;20208;-61
2024/01/30 01:12:22;;;;;;;72.73;33.77;;;-3.80;99.90;;;;;;8400729;28;20532;-63
2024/01/30 01:16:23;;;;;;;67.60;32.00;;;-3.80;99.90;;;;;;8392726;28;20184;-62
2024/01/30 01:20:24;;;;;;;55.00;26.57;;;-3.70;99.90;;;;;;8393338;28;20185;-62
2024/01/30 01:24:24;;;;;;;46.20;20.60;;;-3.60;99.90;;;;;;8395990;28;20268;-61
2024/01/30 01:28:25;;;;;;;30.83;15.00;;;-3.50;99.90;;;;;;8390348;28;20290;-61
2024/01/30 01:32:26;;;;;;;35.13;16.47;;;-3.40;99.90;;;;;;8391667;28;20271;-60
2024/01/30 01:36:27;;;;;;;35.17;17.57;;;-3.40;99.90;;;;;;8398495;28;20531;-61
2024/01/30 01:40:27;;;;;;;25.57;13.67;;;-3.40;99.90;;;;;;8386239;28;20199;-62
2024/01/30 01:44:28;;;;;;;25.07;13.07;;;-3.50;99.90;;;;;;8393979;28;20209;-61
2024/01/30 01:48:29;;;;;;;78.93;37.80;;;-3.50;99.90;;;;;;8399644;28;20172;-61
2024/01/30 01:52:31;;;;;;;69.20;33.23;;;-3.60;99.90;;;;;;8396830;28;20196;-61
2024/01/30 01:56:33;;;;;;;55.30;26.80;;;-3.70;99.90;;;;;;8392659;28;20185;-60
2024/01/30 02:00:35;;;;;;;36.67;16.37;;;-3.80;99.90;;;;;;8391027;28;20240;-61
2024/01/30 02:04:36;;;;;;;26.30;12.97;;;-3.90;99.90;;;;;;8396506;28;20273;-62
2024/01/30 02:08:38;;;;;;;21.57;11.20;;;-3.90;99.90;;;;;;8389726;28;20234;-61
2024/01/30 02:12:39;;;;;;;24.53;11.50;;;-4.00;99.90;;;;;;8390719;28;20184;-63
2024/01/30 02:16:40;;;;;;;23.30;12.17;;;-4.00;99.90;;;;;;8388236;28;20404;-62
2024/01/30 02:20:41;;;;;;;25.47;13.03;;;-4.00;99.90;;;;;;8391388;28;20522;-63
2024/01/30 02:24:41;;;;;;;85.97;38.33;;;-3.90;99.90;;;;;;8393327;28;20216;-63
2024/01/30 02:28:42;;;;;;;61.40;30.00;;;-3.90;99.90;;;;;;8391198;28;20181;-62
2024/01/30 02:32:43;;;;;;;48.40;23.13;;;-3.90;99.90;;;;;;8389061;28;20176;-62
2024/01/30 02:36:44;;;;;;;122.77;51.83;;;-4.00;99.90;;;;;;8392073;28;20223;-62
2024/01/30 02:40:47;;;;;;;100.73;44.77;;;-3.90;99.90;;;;;;8386513;28;20571;-63
2024/01/30 02:44:48;;;;;;;67.07;30.17;;;-4.00;99.90;;;;;;8391891;28;20291;-63
2024/01/30 02:48:48;;;;;;;34.00;17.33;;;-4.00;99.90;;;;;;8384662;28;21681;-63
2024/01/30 02:52:49;;;;;;;27.27;13.57;;;-4.10;99.90;;;;;;8390257;28;20538;-62
2024/01/30 02:56:50;;;;;;;23.30;11.33;;;-4.20;99.90;;;;;;8390161;28;20218;-62
2024/01/30 03:00:51;;;;;;;22.37;11.77;;;-4.20;99.90;;;;;;8386188;28;20208;-62
2024/01/30 03:04:51;;;;;;;19.07;10.17;;;-4.20;99.90;;;;;;8387606;28;20204;-64
2024/01/30 03:08:52;;;;;;;16.50;10.30;;;-4.20;99.90;;;;;;8391091;28;20226;-63
2024/01/30 03:12:52;;;;;;;19.33;10.20;;;-4.20;99.90;;;;;;8393206;28;20180;-62
2024/01/30 03:16:53;;;;;;;24.80;12.73;;;-4.20;99.90;;;;;;8390068;28;20276;-63
2024/01/30 03:20:54;;;;;;;21.10;12.40;;;-4.10;99.90;;;;;;8386768;28;20183;-63
2024/01/30 03:24:55;;;;;;;28.17;14.60;;;-4.10;99.90;;;;;;8390036;28;20238;-63
2024/01/30 03:28:55;;;;;;;22.70;12.10;;;-4.00;99.90;;;;;;8386566;28;20289;-63
2024/01/30 03:32:56;;;;;;;22.33;11.13;;;-4.10;99.90;;;;;;8390449;28;20183;-63
2024/01/30 03:36:57;;;;;;;22.17;10.87;;;-4.10;99.90;;;;;;8392546;28;20188;-62
2024/01/30 03:40:58;;;;;;;20.53;11.87;;;-4.10;99.90;;;;;;8392554;28;20272;-63
2024/01/30 03:44:59;;;;;;;27.43;14.00;;;-4.00;99.90;;;;;;8394363;28;20923;-62
2024/01/30 03:48:59;;;;;;;21.17;10.97;;;-4.00;99.90;;;;;;8405630;28;20215;-63
2024/01/30 03:53:00;;;;;;;19.77;9.40;;;-4.00;99.90;;;;;;8400026;28;20181;-62
2024/01/30 03:57:01;;;;;;;13.60;8.50;;;-4.00;99.90;;;;;;8394759;28;20274;-63
2024/01/30 04:01:02;;;;;;;43.63;19.77;;;-3.90;99.90;;;;;;8392619;28;20205;-63
2024/01/30 04:05:02;;;;;;;35.33;16.83;;;-3.60;99.90;;;;;;8396531;28;20220;-63
2024/01/30 04:09:03;;;;;;;31.63;17.40;;;-3.50;99.90;;;;;;8396379;28;20280;-62
2024/01/30 04:13:04;;;;;;;49.50;25.40;;;-3.30;99.90;;;;;;8396334;28;20200;-62
2024/01/30 04:17:05;;;;;;;70.10;33.23;;;-3.30;99.90;;;;;;8394840;28;20182;-63
2024/01/30 04:21:05;;;;;;;71.23;35.60;;;-3.20;99.90;;;;;;8398028;28;20184;-63
2024/01/30 04:25:06;;;;;;;46.67;24.57;;;-3.20;99.90;;;;;;8399851;28;20218;-62
2024/01/30 04:29:07;;;;;;;46.50;23.03;;;-3.20;99.90;;;;;;8394450;28;20192;-63
2024/01/30 04:33:08;;;;;;;30.40;17.63;;;-3.10;99.90;;;;;;8394132;28;20184;-63
2024/01/30 04:37:08;;;;;;;32.23;17.83;;;-3.00;99.90;;;;;;8390403;28;20196;-63
2024/01/30 04:41:09;;;;;;;29.07;15.70;;;-2.90;99.90;;;;;;8395735;28;20186;-63
2024/01/30 04:45:10;;;;;;;25.43;15.27;;;-2.90;99.90;;;;;;8391563;28;20438;-62
2024/01/30 04:49:11;;;;;;;36.70;17.80;;;-2.80;99.90;;;;;;8395406;28;20557;-61
2024/01/30 04:53:11;;;;;;;34.20;17.63;;;-2.70;99.90;;;;;;8391569;28;20194;-62
2024/01/30 04:57:12;;;;;;;65.37;30.57;;;-2.60;99.90;;;;;;8392015;28;20465;-62
2024/01/30 05:01:17;;;;;;;52.27;26.67;;;-2.50;99.90;;;;;;8391065;28;20616;-61
2024/01/30 05:05:18;;;;;;;50.83;24.03;;;-2.50;99.90;;;;;;8394087;28;20216;-63
2024/01/30 05:09:18;;;;;;;57.00;27.50;;;-2.40;99.90;;;;;;8390576;28;20618;-62
2024/01/30 05:13:19;;;;;;;43.63;22.33;;;-2.30;99.90;;;;;;8389041;28;20194;-63
2024/01/30 05:17:20;;;;;;;52.67;25.63;;;-2.30;99.90;;;;;;8393707;28;20198;-60
2024/01/30 05:21:21;;;;;;;46.67;24.23;;;-2.40;99.90;;;;;;8389531;28;20188;-64
2024/01/30 05:25:23;;;;;;;60.63;30.73;;;-2.50;99.90;;;;;;8389974;28;20225;-63
2024/01/30 05:29:24;;;;;;;63.90;30.03;;;-2.60;99.90;;;;;;8388498;28;20187;-63
2024/01/30 05:33:25;;;;;;;62.27;28.30;;;-2.70;99.90;;;;;;8347822;28;1231546;-64
2024/01/30 05:37:25;;;;;;;54.40;17.07;;;-2.80;99.90;;;;;;8394754;28;20193;-63
2024/01/30 05:41:26;;;;;;;22.20;9.53;;;-2.80;99.90;;;;;;8391479;28;20186;-63
2024/01/30 05:45:27;;;;;;;20.47;8.70;;;-2.70;99.90;;;;;;8390682;28;20441;-62
2024/01/30 05:49:28;;;;;;;25.43;12.23;;;-2.60;99.90;;;;;;8396723;28;20463;-63
2024/01/30 05:53:28;;;;;;;44.80;27.53;;;-2.50;99.90;;;;;;8391115;28;20187;-63
2024/01/30 05:57:29;;;;;;;43.90;23.00;;;-2.40;99.90;;;;;;8388696;28;20252;-63
2024/01/30 06:01:30;;;;;;;52.93;25.13;;;-2.40;99.90;;;;;;8389677;28;20310;-63
2024/01/30 06:05:30;;;;;;;53.03;25.43;;;-2.40;99.90;;;;;;8394695;28;20218;-64
2024/01/30 06:09:31;;;;;;;35.93;15.70;;;-2.40;99.90;;;;;;8389335;28;20189;-64
2024/01/30 06:13:32;;;;;;;29.67;13.97;;;-2.50;99.90;;;;;;8391336;28;20792;-63
2024/01/30 06:17:33;;;;;;;28.50;12.93;;;-2.70;99.90;;;;;;8395810;28;20193;-63
2024/01/30 06:21:36;;;;;;;27.70;14.03;;;-2.80;99.90;;;;;;8390845;28;20606;-64
2024/01/30 06:25:37;;;;;;;23.93;14.47;;;-2.90;99.90;;;;;;8389528;28;20208;-63
2024/01/30 06:29:37;;;;;;;50.47;28.00;;;-2.90;99.90;;;;;;8393872;28;20182;-63
2024/01/30 06:33:38;;;;;;;132.23;57.73;;;-2.90;99.90;;;;;;8389980;28;20201;-64
2024/01/30 06:37:39;;;;;;;197.63;78.17;;;-2.80;99.90;;;;;;8389026;28;20190;-64
2024/01/30 06:41:42;;;;;;;131.10;52.07;;;-2.70;99.90;;;;;;8391030;28;20185;-63
2024/01/30 06:45:44;;;;;;;65.50;32.27;;;-2.70;99.90;;;;;;8391192;28;20206;-63
2024/01/30 06:49:45;;;;;;;37.73;20.67;;;-2.60;99.90;;;;;;8389639;28;20269;-63
2024/01/30 06:53:45;;;;;;;23.37;12.97;;;-2.40;99.90;;;;;;8390292;28;20179;-63
2024/01/30 06:57:46;;;;;;;27.37;14.53;;;-2.30;99.90;;;;;;8388816;28;20185;-64
2024/01/30 07:01:47;;;;;;;47.80;21.97;;;-2.10;99.90;;;;;;8389790;28;20199;-64
2024/01/30 07:05:48;;;;;;;46.83;24.63;;;-1.90;99.90;;;;;;8390395;28;20498;-65
2024/01/30 07:09:52;;;;;;;42.10;25.07;;;-1.70;99.90;;;;;;8392915;28;20234;-65
2024/01/30 07:13:54;;;;;;;33.90;18.83;;;-1.60;99.90;;;;;;8394176;28;20209;-65
2024/01/30 07:17:54;;;;;;;43.80;20.13;;;-1.40;99.90;;;;;;8389853;28;20191;-65
2024/01/30 07:21:55;;;;;;;26.13;14.83;;;-1.20;99.90;;;;;;8389070;28;20181;-65
2024/01/30 07:25:56;;;;;;;20.73;12.43;;;-1.10;99.90;;;;;;8394592;28;20247;-65
2024/01/30 07:29:56;;;;;;;33.67;19.77;;;-0.90;99.90;;;;;;8393484;28;20192;-65
2024/01/30 07:33:57;;;;;;;33.07;21.73;;;-0.80;99.90;;;;;;8400551;28;20192;-65
2024/01/30 07:37:58;;;;;;;24.00;17.57;;;-0.60;99.90;;;;;;8400804;28;20276;-65
2024/01/30 07:41:58;;;;;;;16.23;11.47;;;-0.40;99.90;;;;;;8403447;28;20259;-65
2024/01/30 07:46:00;;;;;;;20.97;11.80;;;-0.20;99.90;;;;;;8404559;28;20204;-65
2024/01/30 07:50:01;;;;;;;95.20;48.50;;;0.00;99.90;;;;;;8405349;28;20188;-65
2024/01/30 07:54:02;;;;;;;52.40;27.60;;;0.20;99.90;;;;;;8395364;28;20181;-65
2024/01/30 07:58:04;;;;;;;48.67;27.10;;;0.30;99.90;;;;;;8401557;28;20177;-65
2024/01/30 08:02:05;;;;;;;59.97;31.13;;;0.60;99.90;;;;;;8416346;28;20214;-65
2024/01/30 08:06:06;;;;;;;56.03;30.70;;;0.90;99.90;;;;;;8401422;28;20231;-65
2024/01/30 08:10:07;;;;;;;47.77;25.73;;;1.30;99.90;;;;;;8404389;28;20212;-64
2024/01/30 08:14:08;;;;;;;61.63;32.47;;;1.60;99.90;;;;;;8400769;28;20352;-65
2024/01/30 08:18:09;;;;;;;51.77;29.87;;;1.90;99.90;;;;;;8400972;28;20193;-66
2024/01/30 08:22:09;;;;;;;53.57;27.63;;;2.20;99.90;;;;;;8394066;28;20191;-65
2024/01/30 08:26:10;;;;;;;30.53;18.13;;;2.60;99.90;;;;;;8390499;28;20466;-65
2024/01/30 08:30:11;;;;;;;23.63;14.00;;;3.00;99.90;;;;;;8406313;28;20208;-65
2024/01/30 08:34:12;;;;;;;23.07;12.63;;;3.30;99.90;;;;;;8400911;28;20258;-65
2024/01/30 08:38:13;;;;;;;23.80;14.40;;;3.70;99.90;;;;;;8405072;28;20192;-65
2024/01/30 08:42:13;;;;;;;19.80;11.57;;;4.10;99.90;;;;;;8399853;28;20185;-65
2024/01/30 08:46:17;;;;;;;16.27;10.00;;;4.50;1.00;;;;;;8399248;28;20204;-64
2024/01/30 08:50:18;;;;;;;9.57;7.17;;;4.80;99.90;;;;;;8398372;28;20234;-66
2024/01/30 08:54:19;;;;;;;11.63;6.13;;;5.20;1.00;;;;;;8398661;28;20509;-65
2024/01/30 08:58:20;;;;;;;9.53;5.77;;;5.50;99.90;;;;;;8399079;28;20215;-64
2024/01/30 09:02:20;;;;;;;8.77;5.63;;;5.90;99.90;;;;;;8401731;28;20187;-64
2024/01/30 09:06:21;;;;;;;9.53;5.87;;;6.20;99.90;;;;;;8399171;28;20292;-65
2024/01/30 09:10:22;;;;;;;11.67;6.23;;;6.50;97.20;;;;;;8400650;28;20190;-64
2024/01/30 09:14:23;;;;;;;9.80;5.90;;;6.80;16.60;;;;;;8399116;28;20193;-64
2024/01/30 09:18:23;;;;;;;10.43;6.67;;;7.10;1.00;;;;;;8398852;28;20339;-64
2024/01/30 09:22:24;;;;;;;10.53;5.43;;;7.30;1.00;;;;;;8398256;28;20523;-65
2024/01/30 09:26:25;;;;;;;8.77;5.37;;;7.40;1.00;;;;;;8398150;28;20208;-64
2024/01/30 09:30:29;;;;;;;8.17;5.37;;;7.50;1.00;;;;;;8403584;28;20246;-64
2024/01/30 09:34:30;;;;;;;9.23;5.43;;;7.40;1.00;;;;;;8401966;28;20200;-65
2024/01/30 09:38:30;;;;;;;6.53;4.90;;;7.50;1.00;;;;;;8397362;28;20196;-65
2024/01/30 09:42:37;;;;;;;9.23;5.07;;;7.50;1.00;;;;;;8397317;28;20740;-64
2024/01/30 09:46:38;;;;;;;8.53;5.07;;;7.60;1.00;;;;;;8397344;28;20216;-66
2024/01/30 09:50:39;;;;;;;8.30;5.07;;;7.60;1.00;;;;;;8400219;28;20220;-65
2024/01/30 09:54:41;;;;;;;7.80;4.93;;;7.70;1.00;;;;;;8400148;28;20189;-65
2024/01/30 09:58:42;;;;;;;8.77;5.77;;;7.80;1.00;;;;;;8403147;28;20208;-65
2024/01/30 10:02:43;;;;;;;10.13;6.13;;;7.80;1.00;;;;;;8393580;28;20189;-64
2024/01/30 10:06:43;;;;;;;8.77;5.60;;;7.90;1.00;;;;;;8399613;28;20431;-64
